sensor_id;sensor_type;location;lat;lon;timestamp;P1;P2;P0
74426;PMS7003;62859;53.906;27.430;2023-01-28T00:01:50;17.3;15.7;10.3
74426;PMS7003;62859;53.906;27.430;2023-01-28T00:06:10;15;13;9
74426;PMS7003;62859;53.906;27.430;2023-01-28T00:11:50;17.7;15;9.3
74426;PMS7003;62859;53.906;27.430;2023-01-28T00:16:29;17.7;15;9.3
74426;PMS7003;62859;53.906;27.430;2023-01-28T00:21:40;19;16.5;11
74426;PMS7003;62859;53.906;27.430;2023-01-28T00:26:19;17.7;15;10.7
74426;PMS7003;62859;53.906;27.430;2023-01-28T00:31:40;15;14.5;8.5
74426;PMS7003;62859;53.906;27.430;2023-01-28T00:36:19;17.7;14.7;9.7
74426;PMS7003;62859;53.906;27.430;2023-01-28T00:41:52;20.7;16.3;8.3
74426;PMS7003;62859;53.906;27.430;2023-01-28T00:46:50;21.5;16.5;10
74426;PMS7003;62859;53.906;27.430;2023-01-28T00:51:38;17.3;13.3;9.7
74426;PMS7003;62859;53.906;27.430;2023-01-28T00:56:52;17.3;15.3;10
74426;PMS7003;62859;53.906;27.430;2023-01-28T01:01:09;17;15;10.3
74426;PMS7003;62859;53.906;27.430;2023-01-28T01:06:40;21.7;17.3;10.7
74426;PMS7003;62859;53.906;27.430;2023-01-28T01:11:29;21;16.3;10.5
74426;PMS7003;62859;53.906;27.430;2023-01-28T01:16:40;20;15.7;9.7
74426;PMS7003;62859;53.906;27.430;2023-01-28T01:21:30;18;16.7;11.7
74426;PMS7003;62859;53.906;27.430;2023-01-28T01:26:38;17;14.7;8.3
74426;PMS7003;62859;53.906;27.430;2023-01-28T01:31:19;19.3;16;10
74426;PMS7003;62859;53.906;27.430;2023-01-28T01:36:50;18;14.7;10
74426;PMS7003;62859;53.906;27.430;2023-01-28T01:41:40;16.7;16.7;10.7
74426;PMS7003;62859;53.906;27.430;2023-01-28T01:46:42;17;14.7;10
74426;PMS7003;62859;53.906;27.430;2023-01-28T01:51:52;19.5;17.5;10
74426;PMS7003;62859;53.906;27.430;2023-01-28T01:56:09;19.7;17.3;11
74426;PMS7003;62859;53.906;27.430;2023-01-28T02:01:40;18.3;15.3;10.3
74426;PMS7003;62859;53.906;27.430;2023-01-28T02:06:08;16;15.5;10.3
74426;PMS7003;62859;53.906;27.430;2023-01-28T02:11:40;21.7;17.3;10.7
74426;PMS7003;62859;53.906;27.430;2023-01-28T02:16:18;19.3;15;9.7
74426;PMS7003;62859;53.906;27.430;2023-01-28T02:21:50;21.3;17;10.5
74426;PMS7003;62859;53.906;27.430;2023-01-28T02:26:24;18;14.3;8.7
74426;PMS7003;62859;53.906;27.430;2023-01-28T02:31:24;19.5;16;10.5
74426;PMS7003;62859;53.906;27.430;2023-01-28T02:36:39;19.5;16.8;11
74426;PMS7003;62859;53.906;27.430;2023-01-28T02:41:51;20.3;19;10
74426;PMS7003;62859;53.906;27.430;2023-01-28T02:46:33;19;15.5;10.5
74426;PMS7003;62859;53.906;27.430;2023-01-28T02:51:22;17.3;14.7;10
74426;PMS7003;62859;53.906;27.430;2023-01-28T02:56:54;19.7;17.7;10.3
74426;PMS7003;62859;53.906;27.430;2023-01-28T03:01:09;19.3;17;10.3
74426;PMS7003;62859;53.906;27.430;2023-01-28T03:06:43;26;19.7;11.3
74426;PMS7003;62859;53.906;27.430;2023-01-28T03:11:21;24.3;20.3;12
74426;PMS7003;62859;53.906;27.430;2023-01-28T03:16:55;17;15.7;10.3
74426;PMS7003;62859;53.906;27.430;2023-01-28T03:21:31;22.5;20;10
74426;PMS7003;62859;53.906;27.430;2023-01-28T03:26:28;24.3;20.3;13.3
74426;PMS7003;62859;53.906;27.430;2023-01-28T03:31:40;25;20.3;11
74426;PMS7003;62859;53.906;27.430;2023-01-28T03:36:52;20.3;16.3;10
74426;PMS7003;62859;53.906;27.430;2023-01-28T03:41:09;23.7;18.3;10.3
74426;PMS7003;62859;53.906;27.430;2023-01-28T03:46:08;19;17;10.7
74426;PMS7003;62859;53.906;27.430;2023-01-28T03:51:52;20;17.3;12
74426;PMS7003;62859;53.906;27.430;2023-01-28T03:56:20;21.3;19;10.7
74426;PMS7003;62859;53.906;27.430;2023-01-28T04:01:41;19.7;17;10.7
74426;PMS7003;62859;53.906;27.430;2023-01-28T04:06:53;16;14.3;9
74426;PMS7003;62859;53.906;27.430;2023-01-28T04:11:54;18.3;16.3;10
74426;PMS7003;62859;53.906;27.430;2023-01-28T04:16:30;17;15.3;10
74426;PMS7003;62859;53.906;27.430;2023-01-28T04:21:54;19.3;16;11
74426;PMS7003;62859;53.906;27.430;2023-01-28T04:26:18;21.8;18;10.5
74426;PMS7003;62859;53.906;27.430;2023-01-28T04:31:21;18.3;16.7;10.7
74426;PMS7003;62859;53.906;27.430;2023-01-28T04:36:32;22.3;19.7;11.3
74426;PMS7003;62859;53.906;27.430;2023-01-28T04:41:22;16;13.7;10
74426;PMS7003;62859;53.906;27.430;2023-01-28T04:46:32;17;14.5;9
74426;PMS7003;62859;53.906;27.430;2023-01-28T04:51:38;19;18;10.3
74426;PMS7003;62859;53.906;27.430;2023-01-28T04:56:30;17;14.7;9.7
74426;PMS7003;62859;53.906;27.430;2023-01-28T05:01:50;16;14;9.3
74426;PMS7003;62859;53.906;27.430;2023-01-28T05:06:08;16;14;9.3
74426;PMS7003;62859;53.906;27.430;2023-01-28T05:11:28;15;15;11
74426;PMS7003;62859;53.906;27.430;2023-01-28T05:16:55;15;15;11
74426;PMS7003;62859;53.906;27.430;2023-01-28T05:21:30;14;14;8
74426;PMS7003;62859;53.906;27.430;2023-01-28T05:26:18;18.5;16;10.5
74426;PMS7003;62859;53.906;27.430;2023-01-28T05:31:30;13;13;8
74426;PMS7003;62859;53.906;27.430;2023-01-28T05:36:08;13.5;13;10
74426;PMS7003;62859;53.906;27.430;2023-01-28T05:41:08;17;13.7;8.3
74426;PMS7003;62859;53.906;27.430;2023-01-28T05:46:54;15.5;13;8
74426;PMS7003;62859;53.906;27.430;2023-01-28T05:51:32;16;11;7
74426;PMS7003;62859;53.906;27.430;2023-01-28T05:56:53;15;12;8
74426;PMS7003;62859;53.906;27.430;2023-01-28T06:06:54;14;14;11
74426;PMS7003;62859;53.906;27.430;2023-01-28T06:11:08;15.3;12.3;7.3
74426;PMS7003;62859;53.906;27.430;2023-01-28T06:16:50;13;11.3;8
74426;PMS7003;62859;53.906;27.430;2023-01-28T06:21:21;19;15;10
74426;PMS7003;62859;53.906;27.430;2023-01-28T06:26:52;15;14;9
74426;PMS7003;62859;53.906;27.430;2023-01-28T06:31:18;17;14.3;9
74426;PMS7003;62859;53.906;27.430;2023-01-28T06:36:52;15;14;9
74426;PMS7003;62859;53.906;27.430;2023-01-28T06:41:56;34.5;30;20
74426;PMS7003;62859;53.906;27.430;2023-01-28T06:46:44;20.3;18;11.7
74426;PMS7003;62859;53.906;27.430;2023-01-28T06:51:44;15.7;14;10
74426;PMS7003;62859;53.906;27.430;2023-01-28T06:56:18;15.5;14;10
74426;PMS7003;62859;53.906;27.430;2023-01-28T07:01:53;16.5;14;9.8
74426;PMS7003;62859;53.906;27.430;2023-01-28T07:06:08;18.5;15;11
74426;PMS7003;62859;53.906;27.430;2023-01-28T07:11:40;15.7;11.7;8.7
74426;PMS7003;62859;53.906;27.430;2023-01-28T07:16:42;16.7;15.3;10.3
74426;PMS7003;62859;53.906;27.430;2023-01-28T07:21:55;15;15;9
74426;PMS7003;62859;53.906;27.430;2023-01-28T07:46:44;19;18;11
74426;PMS7003;62859;53.906;27.430;2023-01-28T07:51:32;19;18;11
74426;PMS7003;62859;53.906;27.430;2023-01-28T08:01:08;17;14.5;10
74426;PMS7003;62859;53.906;27.430;2023-01-28T08:06:40;17;14.5;10
74426;PMS7003;62859;53.906;27.430;2023-01-28T08:16:42;21.5;14.5;10
74426;PMS7003;62859;53.906;27.430;2023-01-28T08:21:43;21.5;14.5;10
74426;PMS7003;62859;53.906;27.430;2023-01-28T08:31:41;20;16;14
74426;PMS7003;62859;53.906;27.430;2023-01-28T08:36:40;20.7;18;11
74426;PMS7003;62859;53.906;27.430;2023-01-28T08:41:53;18.5;15;10.5
74426;PMS7003;62859;53.906;27.430;2023-01-28T08:46:08;20.5;16.5;11
74426;PMS7003;62859;53.906;27.430;2023-01-28T08:51:45;19;16;13
74426;PMS7003;62859;53.906;27.430;2023-01-28T08:56:29;19;16;13
74426;PMS7003;62859;53.906;27.430;2023-01-28T09:01:09;21;17.5;12
74426;PMS7003;62859;53.906;27.430;2023-01-28T09:06:08;21;17.5;12
74426;PMS7003;62859;53.906;27.430;2023-01-28T09:11:53;20.5;19;11
74426;PMS7003;62859;53.906;27.430;2023-01-28T09:16:19;21;21;12
74426;PMS7003;62859;53.906;27.430;2023-01-28T09:21:33;21;18;12
74426;PMS7003;62859;53.906;27.430;2023-01-28T09:26:43;25.5;22.5;15
74426;PMS7003;62859;53.906;27.430;2023-01-28T09:36:33;24;20;14
74426;PMS7003;62859;53.906;27.430;2023-01-28T09:41:35;24;20;14
74426;PMS7003;62859;53.906;27.430;2023-01-28T09:46:53;20;16;10
74426;PMS7003;62859;53.906;27.430;2023-01-28T09:51:09;22;19.5;10.5
74426;PMS7003;62859;53.906;27.430;2023-01-28T09:56:27;16.5;15;11
74426;PMS7003;62859;53.906;27.430;2023-01-28T10:01:53;26.5;20.5;11.5
74426;PMS7003;62859;53.906;27.430;2023-01-28T10:06:46;22.8;18.8;12.3
74426;PMS7003;62859;53.906;27.430;2023-01-28T10:11:47;17.7;15;10.7
74426;PMS7003;62859;53.906;27.430;2023-01-28T10:16:56;21.3;16.7;10.3
74426;PMS7003;62859;53.906;27.430;2023-01-28T10:21:33;21.3;15.8;10.5
74426;PMS7003;62859;53.906;27.430;2023-01-28T10:26:32;15;14.5;11
74426;PMS7003;62859;53.906;27.430;2023-01-28T10:36:09;18.3;16.3;11
74426;PMS7003;62859;53.906;27.430;2023-01-28T10:41:31;18.7;15.3;10.7
74426;PMS7003;62859;53.906;27.430;2023-01-28T10:46:43;21;18;12
74426;PMS7003;62859;53.906;27.430;2023-01-28T10:51:32;23;19.5;10.5
74426;PMS7003;62859;53.906;27.430;2023-01-28T10:56:56;14;11;7
74426;PMS7003;62859;53.906;27.430;2023-01-28T11:01:39;12.7;11;6.3
74426;PMS7003;62859;53.906;27.430;2023-01-28T11:06:23;17;16;10
74426;PMS7003;62859;53.906;27.430;2023-01-28T11:11:55;17;16;10
74426;PMS7003;62859;53.906;27.430;2023-01-28T11:21:13;17;13;8
74426;PMS7003;62859;53.906;27.430;2023-01-28T11:26:13;14;12;8
74426;PMS7003;62859;53.906;27.430;2023-01-28T11:31:21;12;12;8
74426;PMS7003;62859;53.906;27.430;2023-01-28T11:36:17;12;12;8
74426;PMS7003;62859;53.906;27.430;2023-01-28T11:51:54;12;12;8
74426;PMS7003;62859;53.906;27.430;2023-01-28T11:56:37;16.5;14.5;10
74426;PMS7003;62859;53.906;27.430;2023-01-28T12:11:44;19;15;10
74426;PMS7003;62859;53.906;27.430;2023-01-28T12:16:36;15.7;13.7;8.7
74426;PMS7003;62859;53.906;27.430;2023-01-28T12:21:33;15.3;12;8
74426;PMS7003;62859;53.906;27.430;2023-01-28T12:26:09;15.3;12;8
74426;PMS7003;62859;53.906;27.430;2023-01-28T12:36:51;13;13;10
74426;PMS7003;62859;53.906;27.430;2023-01-28T12:41:09;17;13;8.5
74426;PMS7003;62859;53.906;27.430;2023-01-28T12:46:55;16;14.3;9.7
74426;PMS7003;62859;53.906;27.430;2023-01-28T12:51:31;14.5;13;8
74426;PMS7003;62859;53.906;27.430;2023-01-28T12:56:51;14.5;9.5;7
74426;PMS7003;62859;53.906;27.430;2023-01-28T13:01:34;16;15;9.5
74426;PMS7003;62859;53.906;27.430;2023-01-28T13:06:41;11;11;8
74426;PMS7003;62859;53.906;27.430;2023-01-28T13:11:21;14;14;10
74426;PMS7003;62859;53.906;27.430;2023-01-28T13:16:53;14;14;10
74426;PMS7003;62859;53.906;27.430;2023-01-28T13:31:51;16;11;9
74426;PMS7003;62859;53.906;27.430;2023-01-28T13:36:43;18;15.5;9.5
74426;PMS7003;62859;53.906;27.430;2023-01-28T13:41:39;21;16.5;11
74426;PMS7003;62859;53.906;27.430;2023-01-28T13:46:10;17;15;8
74426;PMS7003;62859;53.906;27.430;2023-01-28T13:56:14;20;17;11
74426;PMS7003;62859;53.906;27.430;2023-01-28T14:07:24;12;12;8
74426;PMS7003;62859;53.906;27.430;2023-01-28T14:11:13;13;11;8
74426;PMS7003;62859;53.906;27.430;2023-01-28T14:16:21;15.5;13;8.5
74426;PMS7003;62859;53.906;27.430;2023-01-28T14:21:55;14;14;9
74426;PMS7003;62859;53.906;27.430;2023-01-28T14:26:35;10;8;7
74426;PMS7003;62859;53.906;27.430;2023-01-28T14:41:09;16;11;9
74426;PMS7003;62859;53.906;27.430;2023-01-28T14:46:44;12;12;8
74426;PMS7003;62859;53.906;27.430;2023-01-28T14:51:24;14.5;12.5;9
74426;PMS7003;62859;53.906;27.430;2023-01-28T14:56:34;14.5;12.5;9
74426;PMS7003;62859;53.906;27.430;2023-01-28T15:01:31;11;11;8
74426;PMS7003;62859;53.906;27.430;2023-01-28T15:06:51;12;11;7
74426;PMS7003;62859;53.906;27.430;2023-01-28T15:11:10;12;11;8
74426;PMS7003;62859;53.906;27.430;2023-01-28T15:16:45;13;12;8
74426;PMS7003;62859;53.906;27.430;2023-01-28T15:21:43;11.3;10.3;7
74426;PMS7003;62859;53.906;27.430;2023-01-28T15:26:55;11;11;6.5
74426;PMS7003;62859;53.906;27.430;2023-01-28T15:31:53;15;12;8
74426;PMS7003;62859;53.906;27.430;2023-01-28T15:36:09;9;9;6
74426;PMS7003;62859;53.906;27.430;2023-01-28T15:41:43;11;10;7
74426;PMS7003;62859;53.906;27.430;2023-01-28T15:46:19;12.5;9.5;7.5
74426;PMS7003;62859;53.906;27.430;2023-01-28T15:51:41;14.5;12.5;8.3
74426;PMS7003;62859;53.906;27.430;2023-01-28T15:56:09;17.5;16.5;11
74426;PMS7003;62859;53.906;27.430;2023-01-28T16:02:08;19;17.3;11.7
74426;PMS7003;62859;53.906;27.430;2023-01-28T16:06:33;17;15;11
74426;PMS7003;62859;53.906;27.430;2023-01-28T16:11:43;16;11.5;8
74426;PMS7003;62859;53.906;27.430;2023-01-28T16:16:33;15.3;13.7;10.7
74426;PMS7003;62859;53.906;27.430;2023-01-28T16:21:55;12;11;7
74426;PMS7003;62859;53.906;27.430;2023-01-28T16:26:19;12;11;7
74426;PMS7003;62859;53.906;27.430;2023-01-28T16:36:55;16;11;8
74426;PMS7003;62859;53.906;27.430;2023-01-28T16:41:22;11.5;11;7
74426;PMS7003;62859;53.906;27.430;2023-01-28T16:46:33;11.5;11;7
74426;PMS7003;62859;53.906;27.430;2023-01-28T16:51:55;9.5;8;5.5
74426;PMS7003;62859;53.906;27.430;2023-01-28T16:56:43;11.7;10;6.7
74426;PMS7003;62859;53.906;27.430;2023-01-28T17:01:31;13;10;6
74426;PMS7003;62859;53.906;27.430;2023-01-28T17:06:57;8.7;6.3;4.7
74426;PMS7003;62859;53.906;27.430;2023-01-28T17:11:09;10;7;6
74426;PMS7003;62859;53.906;27.430;2023-01-28T17:16:09;11.5;9;7
74426;PMS7003;62859;53.906;27.430;2023-01-28T17:21:21;14;12.3;8.3
74426;PMS7003;62859;53.906;27.430;2023-01-28T17:26:09;13.3;11.7;8
74426;PMS7003;62859;53.906;27.430;2023-01-28T17:31:33;15;13;9
74426;PMS7003;62859;53.906;27.430;2023-01-28T17:36:19;21.5;18;12
74426;PMS7003;62859;53.906;27.430;2023-01-28T17:41:23;19;16;11.5
74426;PMS7003;62859;53.906;27.430;2023-01-28T17:46:49;19;16.7;10.7
74426;PMS7003;62859;53.906;27.430;2023-01-28T17:51:09;19;16.7;10.7
74426;PMS7003;62859;53.906;27.430;2023-01-28T17:56:35;33;28;21
74426;PMS7003;62859;53.906;27.430;2023-01-28T18:01:55;36;34;22
74426;PMS7003;62859;53.906;27.430;2023-01-28T18:06:43;26.3;26;20.7
74426;PMS7003;62859;53.906;27.430;2023-01-28T18:11:39;26.3;26;20.7
74426;PMS7003;62859;53.906;27.430;2023-01-28T18:16:21;23;23;14
74426;PMS7003;62859;53.906;27.430;2023-01-28T18:21:22;29;25.5;15
74426;PMS7003;62859;53.906;27.430;2023-01-28T18:26:33;20;15;10
74426;PMS7003;62859;53.906;27.430;2023-01-28T18:36:33;25;18;13
74426;PMS7003;62859;53.906;27.430;2023-01-28T18:41:57;23;20.5;15
74426;PMS7003;62859;53.906;27.430;2023-01-28T18:46:10;27.3;23.7;14
74426;PMS7003;62859;53.906;27.430;2023-01-28T18:51:55;27;22;13
74426;PMS7003;62859;53.906;27.430;2023-01-28T18:56:23;25;20;13.7
74426;PMS7003;62859;53.906;27.430;2023-01-28T19:01:41;29.5;23;16
74426;PMS7003;62859;53.906;27.430;2023-01-28T19:06:33;26;24.5;15.5
74426;PMS7003;62859;53.906;27.430;2023-01-28T19:11:59;27.7;25.3;17
74426;PMS7003;62859;53.906;27.430;2023-01-28T19:16:09;26.5;23;15.5
74426;PMS7003;62859;53.906;27.430;2023-01-28T19:21:57;30;26.5;17
74426;PMS7003;62859;53.906;27.430;2023-01-28T19:26:57;30;26.5;17
74426;PMS7003;62859;53.906;27.430;2023-01-28T19:36:43;25;23;17
74426;PMS7003;62859;53.906;27.430;2023-01-28T19:41:37;24.5;23.5;16.5
74426;PMS7003;62859;53.906;27.430;2023-01-28T19:46:43;28.5;23.5;16.5
74426;PMS7003;62859;53.906;27.430;2023-01-28T19:51:09;28.5;23.5;16.5
74426;PMS7003;62859;53.906;27.430;2023-01-28T20:01:09;24.5;21;14
74426;PMS7003;62859;53.906;27.430;2023-01-28T20:06:55;23.5;23;15
74426;PMS7003;62859;53.906;27.430;2023-01-28T20:11:10;24.7;23;14.7
74426;PMS7003;62859;53.906;27.430;2023-01-28T20:16:57;24.7;23;14.7
74426;PMS7003;62859;53.906;27.430;2023-01-28T20:21:59;25;24;15
74426;PMS7003;62859;53.906;27.430;2023-01-28T20:26:45;29;25;18
74426;PMS7003;62859;53.906;27.430;2023-01-28T20:36:37;22.5;21.5;12.5
74426;PMS7003;62859;53.906;27.430;2023-01-28T20:41:45;25.7;22.3;13.3
74426;PMS7003;62859;53.906;27.430;2023-01-28T20:46:23;26;24.5;15.5
74426;PMS7003;62859;53.906;27.430;2023-01-28T20:51:43;26;23;15
74426;PMS7003;62859;53.906;27.430;2023-01-28T20:56:09;25;22.3;14.3
74426;PMS7003;62859;53.906;27.430;2023-01-28T21:01:43;22.5;22.5;15
74426;PMS7003;62859;53.906;27.430;2023-01-28T21:06:23;26;20;15
74426;PMS7003;62859;53.906;27.430;2023-01-28T21:11:59;26.3;23.5;15.3
74426;PMS7003;62859;53.906;27.430;2023-01-28T21:16:47;26.3;23.5;15.3
74426;PMS7003;62859;53.906;27.430;2023-01-28T21:21:45;22.5;20.5;14
74426;PMS7003;62859;53.906;27.430;2023-01-28T21:26:59;33;27.5;17.5
74426;PMS7003;62859;53.906;27.430;2023-01-28T21:31:09;29;25.7;16
74426;PMS7003;62859;53.906;27.430;2023-01-28T21:36:09;29;25;16.3
74426;PMS7003;62859;53.906;27.430;2023-01-28T21:41:27;27.7;24.3;13.3
74426;PMS7003;62859;53.906;27.430;2023-01-28T21:46:47;23.7;21;14
74426;PMS7003;62859;53.906;27.430;2023-01-28T21:51:21;29;24.5;14
74426;PMS7003;62859;53.906;27.430;2023-01-28T21:56:59;26;22.7;15
74426;PMS7003;62859;53.906;27.430;2023-01-28T22:01:33;31;26.5;15
74426;PMS7003;62859;53.906;27.430;2023-01-28T22:06:47;21.7;19;13.7
74426;PMS7003;62859;53.906;27.430;2023-01-28T22:11:47;15;15;11
74426;PMS7003;62859;53.906;27.430;2023-01-28T22:16:59;20;17.3;12
74426;PMS7003;62859;53.906;27.430;2023-01-28T22:21:33;15;15;10
74426;PMS7003;62859;53.906;27.430;2023-01-28T22:26:19;14.7;12.7;8.3
74426;PMS7003;62859;53.906;27.430;2023-01-28T22:31:55;16;13.3;9
74426;PMS7003;62859;53.906;27.430;2023-01-28T22:36:11;15.5;11;6.5
74426;PMS7003;62859;53.906;27.430;2023-01-28T22:41:45;12;9.5;7
74426;PMS7003;62859;53.906;27.430;2023-01-28T22:46:59;11.7;9.3;5
74426;PMS7003;62859;53.906;27.430;2023-01-28T22:51:59;7.3;7.3;5.3
74426;PMS7003;62859;53.906;27.430;2023-01-28T22:56:29;9;7.7;5.3
74426;PMS7003;62859;53.906;27.430;2023-01-28T23:01:55;11;8;5.3
74426;PMS7003;62859;53.906;27.430;2023-01-28T23:06:29;7.3;6.3;4
74426;PMS7003;62859;53.906;27.430;2023-01-28T23:11:09;6.5;4.5;3
74426;PMS7003;62859;53.906;27.430;2023-01-28T23:16:29;6;5.7;4
74426;PMS7003;62859;53.906;27.430;2023-01-28T23:21:13;7.5;5.8;4
74426;PMS7003;62859;53.906;27.430;2023-01-28T23:26:31;5.7;5.3;3.3
74426;PMS7003;62859;53.906;27.430;2023-01-28T23:31:19;7;6.3;4.3
74426;PMS7003;62859;53.906;27.430;2023-01-28T23:36:33;4.7;3;2.7
74426;PMS7003;62859;53.906;27.430;2023-01-28T23:41:51;5.8;4.8;3
74426;PMS7003;62859;53.906;27.430;2023-01-28T23:46:31;4.7;3.3;2.7
74426;PMS7003;62859;53.906;27.430;2023-01-28T23:51:31;7.5;6;4
74426;PMS7003;62859;53.906;27.430;2023-01-28T23:56:53;4.7;4.7;2.3
